KCIC

Chico Municipal Airport

Chico, California, USA
METAR KCIC 230755Z AUTO 00000KT 10SM CLR 00/M03 A3023 RMK AO1
Observed Flight Rules
Feb-23 @ 07:55 UTC (18 minutes ago) Visual Flight Rules
Wind Visibility Clouds
Calm 10 miles
  • Clear skies
Temperatures Readings
Current 0°C / 32°F
Dewpoint -3°C / 27°F
Humidity 80%
Altimeter 30.23" Hg
Pressure 1024 hPa
Elevation 73
METAR KCIC 230755Z AUTO 00000KT 10SM CLR 00/M03 A3023 RMK AO1
Observed Flight Rules
Feb-23 @ 07:55 UTC
(18 minutes ago)
VFR
Wind Visibility
Calm 10 miles
Clouds
  • Clear skies
Temperature Dewpoint
0°C / 32°F -3°C / 27°F
Humidity Altimeter Pressure
80% 30.23" Hg 1024 hPa